createdAt,value
2023-03-19T00:03:21.594Z,99957.13
2023-03-19T00:08:22.944Z,99972.47
2023-03-19T00:13:24.215Z,99975.00
2023-03-19T00:18:25.415Z,99975.56
2023-03-19T00:23:27.095Z,99971.72
2023-03-19T00:28:28.648Z,99964.53
2023-03-19T00:33:29.897Z,99964.13
2023-03-19T00:38:31.124Z,99963.47
2023-03-19T00:43:32.504Z,99969.00
2023-03-19T00:48:33.739Z,99966.59
2023-03-19T00:53:34.926Z,99969.25
2023-03-19T00:58:38.566Z,99966.41
2023-03-19T01:03:39.712Z,99963.78
2023-03-19T01:08:41.239Z,99967.69
2023-03-19T01:13:42.525Z,99960.09
2023-03-19T01:18:43.676Z,99968.19
2023-03-19T01:23:44.870Z,99959.16
2023-03-19T01:28:46.075Z,99967.03
2023-03-19T01:33:47.661Z,99967.88
2023-03-19T01:38:48.923Z,99968.81
2023-03-19T01:43:50.187Z,99961.97
2023-03-19T01:48:51.338Z,99957.13
2023-03-19T01:53:52.648Z,99966.63
2023-03-19T01:58:53.874Z,99955.06
2023-03-19T02:03:55.256Z,99960.13
2023-03-19T02:08:56.533Z,99950.91
2023-03-19T02:13:57.748Z,99950.72
2023-03-19T02:18:59.067Z,99950.75
2023-03-19T02:24:00.716Z,99953.19
2023-03-19T02:29:01.839Z,99961.91
2023-03-19T02:34:03.491Z,99962.81
2023-03-19T02:39:04.627Z,99953.19
2023-03-19T02:44:06.522Z,99951.44
2023-03-19T02:49:07.718Z,99946.09
2023-03-19T02:54:08.854Z,99954.66
2023-03-19T02:59:10.059Z,99955.06
2023-03-19T03:04:11.314Z,99954.63
2023-03-19T03:09:12.856Z,99959.31
2023-03-19T03:14:14.049Z,99968.28
2023-03-19T03:19:15.985Z,99952.03
2023-03-19T03:24:17.265Z,99956.31
2023-03-19T03:29:18.414Z,99961.09
2023-03-19T03:34:19.627Z,99958.47
2023-03-19T03:39:20.805Z,99968.97
2023-03-19T03:44:21.963Z,99976.25
2023-03-19T03:49:23.141Z,99978.25
2023-03-19T03:54:24.350Z,99981.41
2023-03-19T03:59:25.859Z,99983.72
2023-03-19T04:04:27.058Z,99992.97
2023-03-19T04:09:28.214Z,99980.69
2023-03-19T04:14:29.422Z,99978.09
2023-03-19T04:19:31.669Z,99986.25
2023-03-19T04:24:33.164Z,99983.44
2023-03-19T04:29:34.395Z,99983.03
2023-03-19T04:34:35.936Z,99990.81
2023-03-19T04:39:37.672Z,99999.16
2023-03-19T04:44:38.839Z,100001.41
2023-03-19T04:49:40.515Z,99998.16
2023-03-19T04:54:41.741Z,100006.25
2023-03-19T04:59:42.914Z,100017.31
2023-03-19T05:04:44.284Z,100013.03
2023-03-19T05:09:46.281Z,100027.91
2023-03-19T05:14:47.969Z,100021.56
2023-03-19T05:19:49.159Z,100016.50
2023-03-19T05:24:50.688Z,100020.97
2023-03-19T05:29:51.869Z,100025.13
2023-03-19T05:34:53.048Z,100031.66
2023-03-19T05:39:54.306Z,100036.00
2023-03-19T05:44:55.541Z,100038.34
2023-03-19T05:49:56.739Z,100042.53
2023-03-19T05:54:57.964Z,100049.06
2023-03-19T05:59:59.205Z,100038.47
2023-03-19T06:05:00.519Z,100052.56
2023-03-19T06:10:01.715Z,100057.22
2023-03-19T06:15:02.913Z,100066.06
2023-03-19T06:20:04.331Z,100062.56
2023-03-19T06:25:06.632Z,100064.59
2023-03-19T06:30:07.887Z,100073.91
2023-03-19T06:35:09.057Z,100076.75
2023-03-19T06:40:10.240Z,100078.31
2023-03-19T06:45:11.427Z,100082.50
2023-03-19T06:50:12.957Z,100078.78
2023-03-19T06:55:14.248Z,100086.66
2023-03-19T07:00:15.417Z,100082.97
2023-03-19T07:05:16.659Z,100096.59
2023-03-19T07:10:17.889Z,100098.16
2023-03-19T07:15:21.332Z,100101.25
2023-03-19T07:20:22.554Z,100105.94
2023-03-19T07:25:23.731Z,100113.34
2023-03-19T07:30:24.937Z,100120.91
2023-03-19T07:35:26.655Z,100124.59
2023-03-19T07:40:27.832Z,100133.25
2023-03-19T07:45:29.007Z,100130.53
2023-03-19T07:50:31.229Z,100129.47
2023-03-19T07:55:32.470Z,100135.69
2023-03-19T08:00:33.859Z,100130.00
2023-03-19T08:05:35.119Z,100134.22
2023-03-19T08:10:38.270Z,100141.19
2023-03-19T08:15:40.123Z,100135.81
2023-03-19T08:20:41.495Z,100144.44
2023-03-19T08:25:42.768Z,100145.19
2023-03-19T08:30:43.981Z,100152.06
2023-03-19T08:35:45.347Z,100154.63
2023-03-19T08:40:46.694Z,100157.34
2023-03-19T08:45:47.885Z,100164.47
2023-03-19T08:50:49.070Z,100165.75
2023-03-19T08:55:50.265Z,100170.53
2023-03-19T09:00:51.782Z,100168.81
2023-03-19T09:05:53.009Z,100171.59
2023-03-19T09:10:54.291Z,100175.22
2023-03-19T09:15:55.870Z,100172.47
2023-03-19T09:20:57.179Z,100171.50
2023-03-19T09:25:58.477Z,100176.19
2023-03-19T09:30:59.697Z,100187.22
2023-03-19T09:36:01.526Z,100179.94
2023-03-19T09:41:02.759Z,100184.00
2023-03-19T09:46:03.953Z,100187.38
2023-03-19T09:51:05.235Z,100195.31
2023-03-19T09:56:06.694Z,100192.38
2023-03-19T10:01:07.943Z,100191.47
2023-03-19T10:06:09.189Z,100187.59
2023-03-19T10:11:10.526Z,100195.66
2023-03-19T10:16:11.728Z,100203.25
2023-03-19T10:21:13.162Z,100201.06
2023-03-19T10:26:14.433Z,100202.50
2023-03-19T10:31:15.630Z,100204.47
2023-03-19T10:36:16.873Z,100205.53
2023-03-19T10:41:18.039Z,100206.31
2023-03-19T10:46:19.728Z,100202.25
2023-03-19T10:51:20.914Z,100205.66
2023-03-19T10:56:23.111Z,100212.84
2023-03-19T11:01:24.418Z,100213.19
2023-03-19T11:06:25.629Z,100220.34
2023-03-19T11:11:26.879Z,100220.78
2023-03-19T11:16:28.213Z,100221.22
2023-03-19T11:21:29.497Z,100213.09
2023-03-19T11:26:30.979Z,100214.72
2023-03-19T11:31:33.940Z,100216.88
2023-03-19T11:36:35.640Z,100219.41
2023-03-19T11:41:36.854Z,100215.13
2023-03-19T11:46:38.068Z,100210.91
2023-03-19T11:51:39.227Z,100214.97
2023-03-19T11:56:40.628Z,100215.41
2023-03-19T12:01:42.002Z,100203.28
2023-03-19T12:06:43.263Z,100197.19
2023-03-19T12:11:44.762Z,100188.09
2023-03-19T12:16:46.695Z,100192.88
2023-03-19T12:21:47.914Z,100193.16
2023-03-19T12:26:49.141Z,100198.81
2023-03-19T12:31:50.342Z,100190.63
2023-03-19T12:36:51.558Z,100189.53
2023-03-19T12:41:53.345Z,100190.00
2023-03-19T12:46:56.140Z,100188.84
2023-03-19T12:51:59.063Z,100191.47
2023-03-19T12:57:00.245Z,100184.22
2023-03-19T13:02:01.513Z,100183.41
2023-03-19T13:07:02.993Z,100182.84
2023-03-19T13:12:07.048Z,100179.69
2023-03-19T13:17:08.290Z,100185.38
2023-03-19T13:22:09.468Z,100184.63
2023-03-19T13:27:10.594Z,100188.56
2023-03-19T13:32:12.389Z,100181.41
2023-03-19T13:37:13.551Z,100178.59
2023-03-19T13:42:14.684Z,100184.31
2023-03-19T13:47:16.770Z,100185.28
2023-03-19T13:52:17.948Z,100185.09
2023-03-19T13:57:19.407Z,100185.22
2023-03-19T14:02:20.576Z,100184.09
2023-03-19T14:07:21.722Z,100188.34
2023-03-19T14:12:23.076Z,100182.66
2023-03-19T14:17:24.316Z,100188.59
2023-03-19T14:22:25.477Z,100190.84
2023-03-19T14:27:26.780Z,100185.19
2023-03-19T14:32:27.912Z,100177.34
2023-03-19T14:37:29.162Z,100178.78
2023-03-19T14:42:30.485Z,100185.75
2023-03-19T14:47:31.656Z,100193.75
2023-03-19T14:52:32.811Z,100195.47
2023-03-19T14:57:34.000Z,100193.59
2023-03-19T15:02:35.623Z,100197.88
2023-03-19T15:07:38.630Z,100199.22
2023-03-19T15:12:40.577Z,100203.22
2023-03-19T15:17:45.292Z,100219.13
2023-03-19T15:22:48.326Z,100232.34
2023-03-19T15:27:49.534Z,100238.50
2023-03-19T15:33:03.793Z,100237.31
2023-03-19T15:38:09.455Z,100249.69
2023-03-19T15:43:10.665Z,100249.50
2023-03-19T15:48:11.922Z,100248.69
2023-03-19T15:53:13.181Z,100257.69
2023-03-19T15:58:14.356Z,100259.22
2023-03-19T16:03:15.778Z,100262.84
2023-03-19T16:08:16.935Z,100268.06
2023-03-19T16:13:18.113Z,100273.50
2023-03-19T16:18:19.388Z,100277.91
2023-03-19T16:23:20.632Z,100288.31
2023-03-19T16:28:25.207Z,100303.59
2023-03-19T16:33:26.444Z,100309.94
2023-03-19T16:38:28.306Z,100318.09
2023-03-19T16:43:33.272Z,100324.50
2023-03-19T16:48:34.592Z,100327.63
2023-03-19T16:53:36.210Z,100315.19
2023-03-19T16:58:37.424Z,100317.41
2023-03-19T17:03:38.672Z,100302.72
2023-03-19T17:08:39.961Z,100292.19
2023-03-19T17:13:43.659Z,100299.81
2023-03-19T17:18:47.693Z,100299.38
2023-03-19T17:23:48.977Z,100305.84
2023-03-19T17:28:50.423Z,100320.81
2023-03-19T17:33:52.199Z,100344.59
2023-03-19T17:38:55.336Z,100344.19
2023-03-19T17:43:56.669Z,100361.72
2023-03-19T17:48:57.908Z,100371.25
2023-03-19T17:53:59.074Z,100385.84
2023-03-19T17:59:01.610Z,100383.59
2023-03-19T18:04:02.994Z,100386.28
2023-03-19T18:09:04.190Z,100396.97
2023-03-19T18:14:05.396Z,100390.78
2023-03-19T18:19:06.548Z,100392.16
2023-03-19T18:24:07.749Z,100392.94
2023-03-19T18:29:09.083Z,100419.28
2023-03-19T18:34:10.370Z,100426.88
2023-03-19T18:39:11.504Z,100429.22
2023-03-19T18:44:13.700Z,100438.16
2023-03-19T18:49:14.934Z,100434.00
2023-03-19T18:54:16.168Z,100445.06
2023-03-19T18:59:17.408Z,100455.56
2023-03-19T19:04:18.715Z,100460.59
2023-03-19T19:09:19.965Z,100468.25
2023-03-19T19:14:21.774Z,100461.53
2023-03-19T19:19:23.077Z,100460.50
2023-03-19T19:24:24.553Z,100464.00
2023-03-19T19:29:25.880Z,100469.53
2023-03-19T19:34:27.156Z,100485.63
2023-03-19T19:39:28.442Z,100491.84
2023-03-19T19:44:29.617Z,100497.19
2023-03-19T19:49:30.992Z,100497.75
2023-03-19T19:54:32.351Z,100504.03
2023-03-19T19:59:33.622Z,100518.28
2023-03-19T20:04:34.759Z,100516.28
2023-03-19T20:09:36.590Z,100521.53
2023-03-19T20:14:37.773Z,100523.16
2023-03-19T20:19:38.972Z,100529.91
2023-03-19T20:24:40.521Z,100532.47
2023-03-19T20:29:41.924Z,100546.09
2023-03-19T20:34:43.137Z,100552.13
2023-03-19T20:39:44.497Z,100558.38
2023-03-19T20:44:45.657Z,100562.81
2023-03-19T20:49:46.863Z,100561.19
2023-03-19T20:54:48.814Z,100568.03
2023-03-19T20:59:50.468Z,100578.25
2023-03-19T21:04:51.638Z,100583.50
2023-03-19T21:09:52.854Z,100580.09
2023-03-19T21:14:54.124Z,100588.47
2023-03-19T21:19:55.330Z,100591.38
2023-03-19T21:24:56.521Z,100602.16
2023-03-19T21:29:57.671Z,100601.63
2023-03-19T21:34:58.817Z,100607.16
2023-03-19T21:40:00.657Z,100605.06
2023-03-19T21:45:01.896Z,100607.19
2023-03-19T21:50:03.049Z,100614.25
2023-03-19T21:55:04.311Z,100608.28
2023-03-19T22:00:05.769Z,100606.00
2023-03-19T22:05:06.935Z,100607.06
2023-03-19T22:10:08.354Z,100608.38
2023-03-19T22:15:09.522Z,100619.69
2023-03-19T22:20:10.657Z,100624.66
2023-03-19T22:25:12.086Z,100636.78
2023-03-19T22:30:13.256Z,100631.34
2023-03-19T22:35:14.552Z,100637.91
2023-03-19T22:40:15.998Z,100642.38
2023-03-19T22:45:17.216Z,100649.25
2023-03-19T22:50:18.434Z,100644.84
2023-03-19T22:55:19.594Z,100652.22
2023-03-19T23:00:20.831Z,100654.16
2023-03-19T23:05:22.033Z,100657.41
2023-03-19T23:10:23.710Z,100662.44
2023-03-19T23:15:25.280Z,100669.56
2023-03-19T23:20:27.062Z,100670.63
2023-03-19T23:25:28.449Z,100675.66
2023-03-19T23:30:30.282Z,100684.56
2023-03-19T23:35:32.154Z,100692.16
2023-03-19T23:40:33.382Z,100697.94
2023-03-19T23:45:35.304Z,100698.47
2023-03-19T23:50:36.613Z,100701.59
2023-03-19T23:55:37.877Z,100709.75
